createdAt,value
2018-07-27T00:01:53.414Z,62.90
2018-07-27T00:04:20.414Z,63.30
2018-07-27T00:06:47.426Z,63.40
2018-07-27T00:09:14.422Z,63.70
2018-07-27T00:11:42.139Z,63.70
2018-07-27T00:14:09.135Z,64.00
2018-07-27T00:16:36.170Z,64.40
2018-07-27T00:19:03.716Z,64.30
2018-07-27T00:21:30.737Z,65.20
2018-07-27T00:23:57.858Z,65.60
2018-07-27T00:26:24.904Z,66.00
2018-07-27T00:28:51.998Z,66.20
2018-07-27T00:31:19.114Z,66.40
2018-07-27T00:33:46.359Z,66.80
2018-07-27T00:36:13.346Z,67.10
2018-07-27T00:38:40.309Z,67.80
2018-07-27T00:41:07.317Z,68.10
2018-07-27T00:43:34.313Z,69.00
2018-07-27T00:46:01.274Z,69.30
2018-07-27T00:48:28.845Z,69.90
2018-07-27T00:50:55.831Z,70.50
2018-07-27T00:53:22.830Z,70.90
2018-07-27T00:55:49.885Z,70.80
2018-07-27T00:58:16.900Z,70.80
2018-07-27T01:00:43.903Z,71.20
2018-07-27T01:03:10.909Z,71.60
2018-07-27T01:05:37.833Z,72.50
2018-07-27T01:08:04.980Z,72.80
2018-07-27T01:10:31.953Z,73.40
2018-07-27T01:12:58.905Z,73.50
2018-07-27T01:15:25.947Z,74.10
2018-07-27T01:17:52.935Z,74.50
2018-07-27T01:20:19.876Z,75.10
2018-07-27T01:22:46.864Z,75.50
2018-07-27T01:25:13.829Z,76.20
2018-07-27T01:27:40.805Z,76.30
2018-07-27T01:30:07.803Z,77.10
2018-07-27T01:32:34.828Z,77.40
2018-07-27T01:35:01.821Z,77.80
2018-07-27T01:37:29.010Z,78.00
2018-07-27T01:39:56.010Z,78.70
2018-07-27T01:42:23.040Z,79.50
2018-07-27T01:44:50.042Z,79.90
2018-07-27T01:49:44.048Z,80.60
2018-07-27T01:52:11.190Z,81.50
2018-07-27T01:54:38.705Z,81.80
2018-07-27T01:57:05.847Z,82.00
2018-07-27T01:59:33.412Z,82.40
2018-07-27T02:02:00.870Z,83.80
2018-07-27T02:04:27.977Z,83.30
2018-07-27T02:06:55.059Z,83.30
2018-07-27T02:09:22.097Z,83.90
2018-07-27T02:11:49.142Z,84.10
2018-07-27T02:14:16.181Z,84.60
2018-07-27T02:16:43.361Z,84.80
2018-07-27T02:19:10.417Z,85.00
2018-07-27T02:21:37.505Z,85.10
2018-07-27T02:24:04.684Z,86.40
2018-07-27T02:26:31.789Z,85.70
2018-07-27T02:28:58.930Z,86.20
2018-07-27T02:33:56.411Z,88.20
2018-07-27T02:36:25.181Z,89.00
2018-07-27T02:41:19.853Z,91.20
2018-07-27T02:43:46.936Z,92.00
2018-07-27T02:46:14.116Z,93.00
2018-07-27T02:48:41.293Z,92.70
2018-07-27T02:51:08.548Z,92.90
2018-07-27T02:53:35.993Z,93.50
2018-07-27T02:56:03.396Z,93.70
2018-07-27T02:58:30.524Z,94.20
2018-07-27T03:00:57.502Z,94.20
2018-07-27T03:03:24.501Z,94.30
2018-07-27T03:05:51.483Z,94.50
2018-07-27T03:08:18.462Z,94.90
2018-07-27T03:10:45.428Z,94.50
2018-07-27T03:13:12.462Z,94.70
2018-07-27T03:15:39.519Z,95.10
2018-07-27T03:18:06.470Z,94.70
2018-07-27T03:20:33.487Z,95.10
2018-07-27T03:23:00.480Z,95.60
2018-07-27T03:25:27.476Z,95.80
2018-07-27T03:27:54.432Z,95.50
2018-07-27T03:30:22.559Z,95.40
2018-07-27T03:32:50.572Z,95.70
2018-07-27T03:35:17.585Z,95.30
2018-07-27T03:37:44.606Z,95.70
2018-07-27T03:40:11.565Z,95.40
2018-07-27T03:42:38.564Z,95.70
2018-07-27T03:45:05.870Z,96.40
2018-07-27T03:47:33.065Z,97.50
2018-07-27T03:50:00.258Z,97.90
2018-07-27T03:52:27.386Z,98.10
2018-07-27T03:54:54.538Z,98.50
2018-07-27T03:57:21.642Z,99.00
2018-07-27T03:59:48.766Z,99.00
2018-07-27T04:02:16.299Z,99.10
2018-07-27T04:04:43.361Z,98.30
2018-07-27T04:07:10.499Z,98.50
2018-07-27T04:09:37.616Z,99.10
2018-07-27T04:12:04.875Z,99.20
2018-07-27T04:14:32.279Z,98.70
2018-07-27T04:16:59.242Z,98.30
2018-07-27T04:19:26.410Z,97.60
2018-07-27T04:21:53.482Z,98.40
2018-07-27T04:24:20.522Z,98.50
2018-07-27T04:26:47.559Z,98.40
2018-07-27T04:29:15.953Z,97.80
2018-07-27T04:31:44.494Z,97.80
2018-07-27T04:34:13.342Z,98.10
2018-07-27T04:39:16.519Z,98.30
2018-07-27T04:41:47.864Z,97.80
2018-07-27T04:44:19.465Z,98.30
2018-07-27T04:46:49.145Z,98.00
2018-07-27T04:49:19.026Z,97.70
2018-07-27T04:51:54.178Z,97.40
2018-07-27T04:54:25.838Z,96.60
2018-07-27T04:56:56.863Z,96.50
2018-07-27T04:59:25.284Z,96.10
2018-07-27T05:01:53.399Z,95.60
2018-07-27T05:04:20.604Z,94.40
2018-07-27T05:06:47.708Z,93.10
2018-07-27T05:09:20.042Z,92.90
2018-07-27T05:11:47.558Z,89.60
2018-07-27T05:14:16.002Z,87.30
2018-07-27T05:16:43.509Z,86.00
2018-07-27T05:19:10.988Z,81.90
2018-07-27T05:21:39.825Z,79.90
2018-07-27T05:24:08.364Z,77.80
2018-07-27T05:26:35.790Z,76.80
2018-07-27T05:29:02.770Z,80.80
2018-07-27T05:31:30.400Z,81.40
2018-07-27T05:33:57.862Z,81.60
2018-07-27T05:36:24.792Z,82.10
2018-07-27T05:38:52.190Z,81.50
2018-07-27T05:41:20.090Z,79.30
2018-07-27T05:43:48.449Z,78.40
2018-07-27T05:46:15.670Z,78.60
2018-07-27T05:48:42.847Z,78.50
2018-07-27T05:51:09.951Z,78.70
2018-07-27T05:53:37.000Z,78.80
2018-07-27T05:56:04.105Z,77.70
2018-07-27T05:58:31.244Z,77.10
2018-07-27T06:00:58.303Z,77.80
2018-07-27T06:03:25.779Z,77.90
2018-07-27T06:13:14.740Z,72.50
2018-07-27T06:15:41.806Z,72.00
2018-07-27T06:20:35.896Z,71.90
2018-07-27T06:23:02.904Z,70.70
2018-07-27T06:25:30.314Z,70.00
2018-07-27T06:27:57.429Z,67.90
2018-07-27T06:30:24.571Z,67.10
2018-07-27T06:32:51.766Z,65.70
2018-07-27T06:35:18.845Z,63.80
2018-07-27T06:37:45.874Z,63.50
2018-07-27T06:40:13.009Z,62.20
2018-07-27T06:42:40.204Z,59.10
2018-07-27T06:45:07.475Z,59.20
2018-07-27T06:47:34.662Z,58.30
2018-07-27T06:54:56.791Z,56.20
2018-07-27T06:57:23.850Z,55.20
2018-07-27T06:59:51.738Z,52.70
2018-07-27T07:02:18.834Z,52.20
2018-07-27T20:27:51.273Z,39.50
2018-07-27T20:30:18.274Z,66.50
2018-07-27T20:32:45.331Z,66.30
2018-07-27T20:35:12.326Z,67.90
2018-07-27T20:37:39.286Z,65.50
2018-07-27T20:40:06.923Z,66.80
2018-07-27T20:42:33.888Z,65.60
2018-07-27T20:45:00.914Z,65.20
2018-07-27T20:47:27.964Z,65.40
2018-07-27T20:49:54.957Z,65.80
2018-07-27T20:52:22.187Z,65.80
2018-07-27T20:54:49.185Z,66.20
2018-07-27T20:57:16.184Z,66.80
2018-07-27T20:59:43.144Z,67.10
2018-07-27T21:02:10.117Z,67.50
2018-07-27T21:04:37.133Z,68.10
2018-07-27T21:07:04.132Z,68.40
2018-07-27T21:09:31.110Z,68.90
2018-07-27T21:11:58.117Z,69.70
2018-07-27T21:14:25.585Z,70.80
2018-07-27T21:16:52.541Z,71.30
2018-07-27T21:19:19.533Z,71.10
2018-07-27T21:21:46.638Z,71.80
2018-07-27T21:24:13.615Z,72.60
2018-07-27T21:26:40.530Z,72.70
2018-07-27T21:29:07.520Z,72.30
2018-07-27T21:31:34.445Z,72.40
2018-07-27T21:34:01.436Z,72.70
2018-07-27T21:36:28.802Z,73.20
2018-07-27T21:38:55.712Z,73.60
2018-07-27T21:41:22.645Z,73.50
2018-07-27T21:43:49.592Z,74.00
2018-07-27T21:46:16.574Z,74.30
2018-07-27T21:48:43.525Z,74.50
2018-07-27T21:51:10.504Z,75.40
2018-07-27T21:53:37.476Z,77.10
2018-07-27T21:56:04.721Z,76.40
2018-07-27T21:58:31.762Z,77.10
2018-07-27T22:00:58.775Z,77.40
2018-07-27T22:03:25.776Z,77.30
2018-07-27T22:05:52.785Z,77.80
2018-07-27T22:08:19.762Z,78.20
2018-07-27T22:10:46.786Z,78.80
2018-07-27T22:13:14.100Z,79.00
2018-07-27T22:15:41.090Z,78.70
2018-07-27T22:18:08.086Z,78.50
2018-07-27T22:20:35.149Z,78.70
2018-07-27T22:23:02.138Z,78.70
2018-07-27T22:25:29.136Z,79.10
2018-07-27T22:27:56.096Z,79.20
2018-07-27T22:30:23.128Z,79.40
2018-07-27T22:32:50.069Z,79.60
2018-07-27T22:35:17.427Z,80.00
2018-07-27T22:37:44.406Z,79.40
2018-07-27T22:40:11.438Z,80.00
2018-07-27T22:42:38.712Z,80.10
2018-07-27T22:45:06.841Z,80.60
2018-07-27T22:47:33.932Z,80.70
2018-07-27T22:50:00.969Z,81.40
2018-07-27T22:52:32.555Z,82.00
2018-07-27T22:54:59.526Z,82.20
2018-07-27T22:57:26.513Z,82.80
2018-07-27T22:59:53.515Z,82.80
2018-07-27T23:02:20.549Z,83.20
2018-07-27T23:04:47.540Z,83.60
2018-07-27T23:07:14.533Z,84.50
2018-07-27T23:09:41.536Z,84.90
2018-07-27T23:12:08.589Z,85.20
2018-07-27T23:17:09.615Z,85.80
2018-07-27T23:19:36.627Z,86.80
2018-07-27T23:22:03.664Z,86.70
2018-07-27T23:24:30.648Z,86.40
2018-07-27T23:26:57.638Z,86.40
2018-07-27T23:29:24.643Z,86.50
2018-07-27T23:31:51.641Z,86.40
2018-07-27T23:34:18.581Z,86.90
2018-07-27T23:36:45.590Z,87.40
2018-07-27T23:39:13.516Z,87.50
2018-07-27T23:41:40.564Z,87.60
2018-07-27T23:44:07.533Z,87.80
2018-07-27T23:46:34.486Z,87.80
2018-07-27T23:49:01.456Z,87.20
2018-07-27T23:51:28.410Z,87.50
2018-07-27T23:53:55.609Z,87.30
2018-07-27T23:56:22.624Z,87.80
2018-07-27T23:58:49.602Z,87.90
